Time;durP1;ratioP1;P1;durP2;ratioP2;P2;SDS_P1;SDS_P2;PMS_P1;PMS_P2;Temp;Humidity;BMP_temperature;BMP_pressure;BME280_temperature;BME280_humidity;BME280_pressure;Samples;Min_cycle;Max_cycle;Signal;HPM_P1;HPM_P2
2022/07/07 00:01:32;;;;;;;;;;;26.40;42.30;;;;;;5013245;28;19971;-65
2022/07/07 00:03:58;;;;;;;;;;;26.40;42.40;;;;;;5013674;28;19913;-64
2022/07/07 00:06:23;;;;;;;;;;;26.40;42.50;;;;;;5011112;28;19909;-65
2022/07/07 00:08:53;;;;;;;;;;;26.40;42.40;;;;;;5013371;28;20008;-64
2022/07/07 00:11:19;;;;;;;;;;;26.40;42.40;;;;;;5013422;28;20317;-65
2022/07/07 00:13:45;;;;;;;;;;;26.40;42.50;;;;;;5014871;28;19963;-65
2022/07/07 00:16:10;;;;;;;;;;;26.40;42.50;;;;;;5012180;28;19917;-64
2022/07/07 00:18:36;;;;;;;;;;;26.40;42.50;;;;;;5013334;28;19923;-65
2022/07/07 00:21:01;;;;;;;;;;;26.40;42.50;;;;;;5010558;28;19913;-61
2022/07/07 00:23:27;;;;;;;;;;;26.40;42.60;;;;;;5011473;28;19909;-65
2022/07/07 00:25:53;;;;;;;;;;;26.30;42.60;;;;;;5011813;28;19944;-62
2022/07/07 00:28:18;;;;;;;;;;;26.30;42.60;;;;;;5012604;28;19948;-63
2022/07/07 00:30:44;;;;;;;;;;;26.30;42.60;;;;;;5012164;28;19913;-64
2022/07/07 00:33:09;;;;;;;;;;;26.30;42.60;;;;;;5013175;28;19955;-60
2022/07/07 00:35:35;;;;;;;;;;;26.30;42.60;;;;;;5013002;28;19920;-61
2022/07/07 00:38:01;;;;;;;;;;;26.30;42.70;;;;;;5010255;28;20027;-64
2022/07/07 00:40:26;;;;;;;;;;;26.30;42.70;;;;;;5013515;28;21049;-60
2022/07/07 00:42:52;;;;;;;;;;;26.30;42.70;;;;;;5011696;28;20357;-63
2022/07/07 00:45:17;;;;;;;;;;;26.30;42.70;;;;;;5011653;28;20172;-64
2022/07/07 00:47:43;;;;;;;;;;;26.30;42.80;;;;;;5009231;28;20035;-63
2022/07/07 00:50:10;;;;;;;;;;;26.30;42.80;;;;;;5010603;28;21499;-64
2022/07/07 00:52:35;;;;;;;;;;;26.30;42.80;;;;;;5011060;28;20242;-61
2022/07/07 00:55:02;;;;;;;;;;;26.30;42.80;;;;;;5010946;28;20039;-64
2022/07/07 00:57:28;;;;;;;;;;;26.30;42.80;;;;;;5011953;28;20024;-65
2022/07/07 00:59:55;;;;;;;;;;;26.30;42.80;;;;;;5010516;28;20032;-65
2022/07/07 01:02:20;;;;;;;;;;;26.30;42.90;;;;;;5010203;28;19924;-61
2022/07/07 01:04:46;;;;;;;;;;;26.30;42.90;;;;;;5010734;28;19917;-65
2022/07/07 01:07:12;;;;;;;;;;;26.30;42.90;;;;;;5010319;28;19913;-60
2022/07/07 01:09:38;;;;;;;;;;;26.30;42.90;;;;;;5010845;28;19909;-60
2022/07/07 01:12:04;;;;;;;;;;;26.30;42.90;;;;;;5013117;28;19914;-63
2022/07/07 01:14:29;;;;;;;;;;;26.20;42.90;;;;;;5013220;28;19992;-65
2022/07/07 01:16:55;;;;;;;;;;;26.20;42.90;;;;;;5011840;28;20078;-64
2022/07/07 01:19:21;;;;;;;;;;;26.20;42.90;;;;;;5009552;28;19920;-64
2022/07/07 01:21:53;;;;;;;;;;;26.20;43.00;;;;;;5008863;28;20241;-61
2022/07/07 01:24:20;;;;;;;;;;;26.30;43.10;;;;;;5012088;28;20006;-64
2022/07/07 01:26:45;;;;;;;;;;;26.20;43.10;;;;;;5010945;28;19920;-65
2022/07/07 01:29:11;;;;;;;;;;;26.20;43.10;;;;;;5012797;28;20314;-64
2022/07/07 01:31:36;;;;;;;;;;;26.20;43.10;;;;;;5009253;28;20399;-62
2022/07/07 01:34:02;;;;;;;;;;;26.20;43.10;;;;;;5010414;28;20000;-62
2022/07/07 01:36:27;;;;;;;;;;;26.20;43.10;;;;;;5009592;28;19923;-64
2022/07/07 01:38:53;;;;;;;;;;;26.20;43.20;;;;;;5012616;28;20012;-64
2022/07/07 01:41:18;;;;;;;;;;;26.20;43.20;;;;;;5011092;28;19920;-63
2022/07/07 01:43:44;;;;;;;;;;;26.20;43.20;;;;;;5012273;28;19963;-65
2022/07/07 01:46:09;;;;;;;;;;;26.20;43.20;;;;;;5011078;28;19909;-66
2022/07/07 01:48:35;;;;;;;;;;;26.20;43.20;;;;;;5010329;28;19992;-61
2022/07/07 01:51:01;;;;;;;;;;;26.20;43.30;;;;;;5008983;28;19935;-66
2022/07/07 01:53:26;;;;;;;;;;;26.20;43.30;;;;;;5009328;28;20457;-64
2022/07/07 01:55:52;;;;;;;;;;;26.20;43.30;;;;;;5011967;28;20015;-65
2022/07/07 01:58:18;;;;;;;;;;;26.20;43.30;;;;;;5009280;28;19952;-65
2022/07/07 02:00:43;;;;;;;;;;;26.20;43.30;;;;;;5010996;28;20440;-64
2022/07/07 02:03:09;;;;;;;;;;;26.20;43.30;;;;;;5008986;28;19943;-61
2022/07/07 02:05:34;;;;;;;;;;;26.20;43.30;;;;;;5010582;28;19913;-66
2022/07/07 02:08:00;;;;;;;;;;;26.20;43.30;;;;;;5010737;28;19917;-62
2022/07/07 02:13:10;;;;;;;;;;;26.20;43.40;;;;;;5013717;28;19919;-64
2022/07/07 02:15:35;;;;;;;;;;;26.10;43.30;;;;;;5016417;28;19917;-66
2022/07/07 02:18:01;;;;;;;;;;;26.10;43.40;;;;;;5014515;28;19971;-66
2022/07/07 02:20:26;;;;;;;;;;;26.10;43.40;;;;;;5012315;28;19921;-64
2022/07/07 02:22:52;;;;;;;;;;;26.10;43.40;;;;;;5014440;28;19919;-66
2022/07/07 02:25:17;;;;;;;;;;;26.10;43.40;;;;;;5017682;28;20864;-61
2022/07/07 02:27:43;;;;;;;;;;;26.10;43.50;;;;;;5016550;28;19912;-66
2022/07/07 02:30:09;;;;;;;;;;;26.10;43.50;;;;;;5013635;28;19916;-61
2022/07/07 02:32:34;;;;;;;;;;;26.10;43.50;;;;;;5014648;28;20019;-62
2022/07/07 02:35:01;;;;;;;;;;;26.10;43.50;;;;;;5013003;28;20020;-65
2022/07/07 02:37:27;;;;;;;;;;;26.10;43.50;;;;;;5012612;28;19931;-64
2022/07/07 02:39:53;;;;;;;;;;;26.10;43.50;;;;;;5016341;28;19984;-62
2022/07/07 02:42:18;;;;;;;;;;;26.00;43.50;;;;;;5014688;28;20665;-64
2022/07/07 02:44:44;;;;;;;;;;;26.10;43.60;;;;;;5014879;28;19924;-65
2022/07/07 02:47:09;;;;;;;;;;;26.00;43.50;;;;;;5014619;28;20007;-64
2022/07/07 02:49:35;;;;;;;;;;;26.10;43.60;;;;;;5014001;28;19913;-62
2022/07/07 02:52:00;;;;;;;;;;;26.00;43.50;;;;;;5013203;28;20521;-65
2022/07/07 02:54:26;;;;;;;;;;;26.00;44.10;;;;;;5013758;28;20306;-60
2022/07/07 02:56:51;;;;;;;;;;;26.10;43.70;;;;;;5015940;28;20334;-64
2022/07/07 02:59:17;;;;;;;;;;;26.00;43.60;;;;;;5014977;28;20245;-63
2022/07/07 03:01:42;;;;;;;;;;;26.00;43.60;;;;;;5014140;28;20007;-59
2022/07/07 03:04:08;;;;;;;;;;;26.00;43.60;;;;;;5015730;28;19968;-65
2022/07/07 03:06:33;;;;;;;;;;;26.00;43.70;;;;;;5011724;28;19952;-66
2022/07/07 03:08:59;;;;;;;;;;;26.00;43.60;;;;;;5015985;28;19913;-65
2022/07/07 03:11:24;;;;;;;;;;;26.00;43.70;;;;;;5013139;28;19909;-66
2022/07/07 03:13:50;;;;;;;;;;;26.00;43.70;;;;;;5006888;28;19920;-60
2022/07/07 03:16:15;;;;;;;;;;;26.00;43.70;;;;;;5007911;28;20224;-62
2022/07/07 03:18:41;;;;;;;;;;;26.00;43.70;;;;;;5012641;28;20627;-62
2022/07/07 03:21:06;;;;;;;;;;;26.00;43.70;;;;;;5012489;28;19921;-64
2022/07/07 03:23:32;;;;;;;;;;;26.00;43.70;;;;;;5004556;28;20013;-66
2022/07/07 03:25:57;;;;;;;;;;;26.00;43.70;;;;;;5010311;28;19924;-66
2022/07/07 03:28:23;;;;;;;;;;;25.90;39.70;;;;;;5013542;28;19936;-66
2022/07/07 03:30:48;;;;;;;;;;;25.80;41.10;;;;;;5013023;28;19921;-65
2022/07/07 03:33:14;;;;;;;;;;;25.80;40.30;;;;;;5012768;28;19917;-61
2022/07/07 03:35:40;;;;;;;;;;;25.80;39.70;;;;;;5013238;28;19913;-61
2022/07/07 03:38:05;;;;;;;;;;;25.80;39.00;;;;;;5009828;28;20396;-65
2022/07/07 03:40:31;;;;;;;;;;;25.70;38.50;;;;;;5012684;28;19913;-64
2022/07/07 03:42:57;;;;;;;;;;;25.60;38.60;;;;;;5012052;28;20349;-63
2022/07/07 03:45:22;;;;;;;;;;;25.60;38.40;;;;;;5014422;28;20015;-63
2022/07/07 03:47:50;;;;;;;;;;;25.60;38.20;;;;;;5012973;28;20377;-65
2022/07/07 03:50:15;;;;;;;;;;;25.50;38.20;;;;;;5011298;28;19913;-63
2022/07/07 03:52:41;;;;;;;;;;;25.50;37.80;;;;;;5010524;28;20598;-64
2022/07/07 03:55:07;;;;;;;;;;;25.40;38.50;;;;;;5012800;28;20274;-62
2022/07/07 03:57:32;;;;;;;;;;;25.40;38.00;;;;;;5026890;28;20020;-60
2022/07/07 03:59:58;;;;;;;;;;;25.10;37.20;;;;;;5010866;28;19989;-66
2022/07/07 04:02:24;;;;;;;;;;;24.90;37.20;;;;;;5004178;28;19917;-64
2022/07/07 04:04:49;;;;;;;;;;;24.60;37.50;;;;;;5009196;28;20433;-64
2022/07/07 04:07:15;;;;;;;;;;;24.30;38.00;;;;;;5000512;28;20003;-61
2022/07/07 04:09:40;;;;;;;;;;;24.00;38.40;;;;;;5004789;28;19924;-61
2022/07/07 04:12:06;;;;;;;;;;;23.80;38.70;;;;;;5012710;28;20036;-60
2022/07/07 04:14:32;;;;;;;;;;;23.60;39.10;;;;;;5011640;28;20004;-65
2022/07/07 04:16:58;;;;;;;;;;;23.50;39.40;;;;;;5010312;28;19917;-60
2022/07/07 04:19:23;;;;;;;;;;;23.40;39.60;;;;;;5008849;28;19995;-65
2022/07/07 04:21:49;;;;;;;;;;;23.30;39.80;;;;;;5009689;28;20269;-65
2022/07/07 04:24:14;;;;;;;;;;;23.20;40.00;;;;;;5010813;28;19916;-63
2022/07/07 04:26:40;;;;;;;;;;;23.00;40.20;;;;;;5009982;28;19948;-61
2022/07/07 04:29:05;;;;;;;;;;;22.90;40.30;;;;;;5014533;28;20254;-63
2022/07/07 04:31:31;;;;;;;;;;;22.80;40.50;;;;;;5011739;28;19928;-61
2022/07/07 04:33:57;;;;;;;;;;;22.70;40.60;;;;;;5009412;28;19913;-60
2022/07/07 04:36:22;;;;;;;;;;;22.70;40.60;;;;;;5009650;28;19917;-66
2022/07/07 04:38:48;;;;;;;;;;;22.60;40.90;;;;;;5011432;28;19920;-63
2022/07/07 04:41:13;;;;;;;;;;;22.60;41.10;;;;;;5012633;28;19992;-63
2022/07/07 04:43:39;;;;;;;;;;;22.60;41.20;;;;;;5008817;28;20007;-61
2022/07/07 04:46:04;;;;;;;;;;;22.50;41.40;;;;;;5009367;28;19913;-65
2022/07/07 04:48:30;;;;;;;;;;;22.40;41.70;;;;;;5009342;28;19913;-63
2022/07/07 04:50:55;;;;;;;;;;;22.30;41.90;;;;;;5008707;28;19927;-65
2022/07/07 04:53:21;;;;;;;;;;;22.30;42.00;;;;;;5008442;28;19909;-63
2022/07/07 04:55:46;;;;;;;;;;;22.30;42.20;;;;;;5012024;28;19921;-66
2022/07/07 04:58:12;;;;;;;;;;;22.40;42.20;;;;;;5010649;28;19913;-62
2022/07/07 05:00:37;;;;;;;;;;;22.40;42.20;;;;;;5010905;28;19917;-63
2022/07/07 05:03:03;;;;;;;;;;;22.30;42.10;;;;;;5009963;28;20534;-60
2022/07/07 05:05:28;;;;;;;;;;;22.30;42.30;;;;;;5012075;28;19967;-61
2022/07/07 05:07:54;;;;;;;;;;;22.30;42.30;;;;;;5009203;28;20578;-62
2022/07/07 05:10:20;;;;;;;;;;;22.40;42.60;;;;;;5004760;28;19925;-62
2022/07/07 05:12:45;;;;;;;;;;;22.30;42.60;;;;;;5009757;28;19916;-61
2022/07/07 05:15:10;;;;;;;;;;;22.20;42.80;;;;;;5015057;28;19917;-60
2022/07/07 05:17:36;;;;;;;;;;;22.10;42.80;;;;;;5008061;28;19919;-62
2022/07/07 05:20:03;;;;;;;;;;;22.00;43.00;;;;;;5010855;28;19924;-66
2022/07/07 05:22:28;;;;;;;;;;;22.10;43.50;;;;;;5012015;28;20395;-66
2022/07/07 05:24:54;;;;;;;;;;;22.30;43.60;;;;;;5012115;28;19928;-65
2022/07/07 05:27:19;;;;;;;;;;;22.40;43.50;;;;;;5014369;28;20567;-65
2022/07/07 05:29:45;;;;;;;;;;;22.60;43.60;;;;;;5010249;28;19909;-65
2022/07/07 05:32:10;;;;;;;;;;;22.70;43.50;;;;;;5009824;28;19971;-64
2022/07/07 05:34:36;;;;;;;;;;;22.80;43.60;;;;;;5015082;28;20629;-61
2022/07/07 05:37:01;;;;;;;;;;;22.80;43.60;;;;;;5007446;28;20491;-64
2022/07/07 05:39:28;;;;;;;;;;;22.90;43.50;;;;;;5008753;28;19916;-65
2022/07/07 05:41:54;;;;;;;;;;;23.00;43.60;;;;;;5010914;28;19914;-65
2022/07/07 05:44:19;;;;;;;;;;;23.00;43.60;;;;;;5013729;28;19924;-64
2022/07/07 05:46:44;;;;;;;;;;;23.10;43.60;;;;;;5011137;28;19913;-65
2022/07/07 05:49:10;;;;;;;;;;;23.10;43.60;;;;;;5016487;28;19916;-64
2022/07/07 05:51:35;;;;;;;;;;;23.20;43.60;;;;;;5013949;28;19913;-64
2022/07/07 05:54:01;;;;;;;;;;;23.30;43.70;;;;;;5017566;28;19912;-65
2022/07/07 05:56:26;;;;;;;;;;;23.30;43.70;;;;;;5015043;28;19927;-61
2022/07/07 05:58:52;;;;;;;;;;;23.30;43.60;;;;;;5016115;28;20325;-64
2022/07/07 06:01:17;;;;;;;;;;;23.40;43.70;;;;;;5013313;28;19936;-65
2022/07/07 06:03:43;;;;;;;;;;;23.40;43.70;;;;;;5016117;28;19952;-63
2022/07/07 06:06:08;;;;;;;;;;;23.50;43.70;;;;;;5013302;28;19913;-65
2022/07/07 06:08:34;;;;;;;;;;;23.50;43.60;;;;;;5015505;28;19920;-66
2022/07/07 06:10:59;;;;;;;;;;;23.60;43.50;;;;;;5015518;28;20420;-65
2022/07/07 06:13:25;;;;;;;;;;;23.60;43.50;;;;;;5015284;28;19913;-66
2022/07/07 06:15:50;;;;;;;;;;;23.70;43.40;;;;;;5014426;28;20019;-66
2022/07/07 06:18:16;;;;;;;;;;;23.70;43.30;;;;;;5012773;28;20672;-62
2022/07/07 06:20:41;;;;;;;;;;;23.70;43.40;;;;;;5014038;28;20446;-65
2022/07/07 06:23:07;;;;;;;;;;;23.80;43.40;;;;;;5012905;28;19919;-62
2022/07/07 06:25:32;;;;;;;;;;;23.90;43.50;;;;;;5016182;28;19963;-63
2022/07/07 06:27:58;;;;;;;;;;;23.90;43.40;;;;;;5014559;28;19931;-63
2022/07/07 06:30:24;;;;;;;;;;;23.90;43.30;;;;;;5016879;28;19912;-65
2022/07/07 06:32:49;;;;;;;;;;;23.90;43.20;;;;;;5014629;28;20392;-65
2022/07/07 06:35:15;;;;;;;;;;;24.00;43.20;;;;;;5013342;28;19967;-62
2022/07/07 06:37:40;;;;;;;;;;;24.10;43.20;;;;;;5013655;28;20059;-65
2022/07/07 06:40:06;;;;;;;;;;;24.10;43.20;;;;;;5016029;28;19916;-62
2022/07/07 06:42:31;;;;;;;;;;;24.10;43.10;;;;;;5016132;28;20302;-61
2022/07/07 06:44:57;;;;;;;;;;;24.10;43.00;;;;;;5013797;28;20495;-64
2022/07/07 06:47:22;;;;;;;;;;;24.20;42.90;;;;;;5014828;28;19967;-65
2022/07/07 06:49:48;;;;;;;;;;;24.20;42.80;;;;;;5016778;28;19916;-61
2022/07/07 06:52:13;;;;;;;;;;;24.30;42.80;;;;;;5010660;28;20031;-61
2022/07/07 06:54:39;;;;;;;;;;;24.30;42.70;;;;;;5016072;28;20742;-65
2022/07/07 06:57:05;;;;;;;;;;;24.30;42.60;;;;;;5015142;28;20440;-64
2022/07/07 06:59:31;;;;;;;;;;;24.40;42.60;;;;;;5014340;28;20420;-64
2022/07/07 07:01:56;;;;;;;;;;;24.40;42.50;;;;;;5012061;28;19949;-62
2022/07/07 07:04:22;;;;;;;;;;;24.40;42.40;;;;;;5014379;28;19990;-65
2022/07/07 07:06:47;;;;;;;;;;;24.40;42.50;;;;;;5011372;28;19913;-61
2022/07/07 07:09:13;;;;;;;;;;;24.40;42.50;;;;;;5014565;28;20016;-65
2022/07/07 07:11:39;;;;;;;;;;;24.40;42.30;;;;;;5013218;28;20219;-66
2022/07/07 07:14:04;;;;;;;;;;;24.50;42.30;;;;;;5014421;28;19920;-64
2022/07/07 07:16:30;;;;;;;;;;;24.50;42.30;;;;;;5013866;28;19966;-62
2022/07/07 07:18:55;;;;;;;;;;;24.60;42.20;;;;;;5015800;28;20007;-63
2022/07/07 07:21:21;;;;;;;;;;;24.60;42.30;;;;;;5013048;28;19923;-67
2022/07/07 07:23:46;;;;;;;;;;;24.60;42.40;;;;;;5011492;28;19999;-64
2022/07/07 07:26:12;;;;;;;;;;;24.60;42.50;;;;;;5015335;28;19917;-65
2022/07/07 07:28:37;;;;;;;;;;;24.60;42.60;;;;;;5012962;28;20285;-63
2022/07/07 07:31:03;;;;;;;;;;;24.70;42.60;;;;;;5015123;28;19955;-65
2022/07/07 07:33:29;;;;;;;;;;;24.70;42.70;;;;;;5010243;28;19916;-65
2022/07/07 07:35:55;;;;;;;;;;;24.70;42.70;;;;;;5015278;28;20354;-65
2022/07/07 07:38:21;;;;;;;;;;;24.80;42.60;;;;;;5010808;28;19909;-65
2022/07/07 07:40:46;;;;;;;;;;;24.80;42.70;;;;;;5014406;28;19913;-64
2022/07/07 07:43:12;;;;;;;;;;;24.80;42.70;;;;;;5015851;28;19913;-65
2022/07/07 07:45:37;;;;;;;;;;;24.90;42.80;;;;;;5018233;28;19996;-64
2022/07/07 07:48:04;;;;;;;;;;;24.90;42.80;;;;;;5009582;28;20012;-64
2022/07/07 07:50:30;;;;;;;;;;;24.90;42.70;;;;;;5016157;28;19967;-64
2022/07/07 07:52:55;;;;;;;;;;;24.90;42.80;;;;;;5011298;28;19913;-66
2022/07/07 07:55:21;;;;;;;;;;;25.00;42.60;;;;;;5014406;28;19917;-65
2022/07/07 07:57:47;;;;;;;;;;;25.00;42.50;;;;;;5014340;28;19921;-65
2022/07/07 08:00:14;;;;;;;;;;;25.10;42.50;;;;;;5014799;28;19924;-65
2022/07/07 08:02:40;;;;;;;;;;;25.10;42.50;;;;;;5009162;28;19913;-65
2022/07/07 08:05:05;;;;;;;;;;;25.10;42.40;;;;;;5014888;28;19932;-66
2022/07/07 08:07:32;;;;;;;;;;;25.10;42.40;;;;;;5011332;28;19917;-66
2022/07/07 08:09:58;;;;;;;;;;;25.10;42.70;;;;;;5012584;28;19920;-66
2022/07/07 08:12:24;;;;;;;;;;;25.10;43.00;;;;;;5009705;28;19913;-65
2022/07/07 08:14:50;;;;;;;;;;;25.10;43.30;;;;;;5012665;28;19947;-65
2022/07/07 08:17:15;;;;;;;;;;;25.20;43.30;;;;;;5013817;28;19919;-63
2022/07/07 08:19:41;;;;;;;;;;;25.20;43.10;;;;;;5013466;28;19913;-61
2022/07/07 08:22:06;;;;;;;;;;;25.20;43.00;;;;;;5009036;28;19966;-60
2022/07/07 08:24:32;;;;;;;;;;;25.20;43.00;;;;;;5011278;28;20281;-65
2022/07/07 08:26:58;;;;;;;;;;;25.20;43.10;;;;;;5013050;28;19909;-61
2022/07/07 08:29:23;;;;;;;;;;;25.30;43.00;;;;;;5013509;28;19909;-63
2022/07/07 08:31:49;;;;;;;;;;;25.30;42.90;;;;;;5013262;28;19913;-61
2022/07/07 08:34:14;;;;;;;;;;;25.40;42.90;;;;;;5009524;28;20546;-65
2022/07/07 08:36:39;;;;;;;;;;;25.40;42.80;;;;;;5010800;28;20024;-64
2022/07/07 08:39:05;;;;;;;;;;;25.40;42.80;;;;;;5003681;28;19920;-65
2022/07/07 08:41:31;;;;;;;;;;;25.40;43.10;;;;;;5011668;28;19987;-62
2022/07/07 08:43:56;;;;;;;;;;;25.40;43.30;;;;;;5011785;28;19924;-65
2022/07/07 08:46:22;;;;;;;;;;;25.50;43.30;;;;;;5013241;28;20242;-64
2022/07/07 08:48:48;;;;;;;;;;;25.50;43.20;;;;;;5011533;28;20404;-65
2022/07/07 08:51:15;;;;;;;;;;;25.60;43.10;;;;;;5012979;28;19909;-64
2022/07/07 08:53:40;;;;;;;;;;;25.60;43.10;;;;;;5012565;28;20436;-62
2022/07/07 08:56:07;;;;;;;;;;;25.60;43.00;;;;;;5012864;28;19924;-60
2022/07/07 08:58:35;;;;;;;;;;;25.70;43.00;;;;;;5013428;28;20026;-63
2022/07/07 09:01:01;;;;;;;;;;;25.70;43.00;;;;;;5012757;28;20010;-64
2022/07/07 09:03:27;;;;;;;;;;;25.70;42.90;;;;;;5011173;28;20350;-65
2022/07/07 09:05:53;;;;;;;;;;;25.70;42.90;;;;;;5014771;28;19909;-65
2022/07/07 09:08:20;;;;;;;;;;;25.70;42.80;;;;;;5009648;28;19912;-64
2022/07/07 09:10:46;;;;;;;;;;;25.80;42.90;;;;;;5015193;28;19923;-62
2022/07/07 09:13:25;;;;;;;;;;;25.80;43.30;;;;;;5012270;28;20583;-65
2022/07/07 09:15:51;;;;;;;;;;;25.80;42.80;;;;;;5014725;28;20007;-65
2022/07/07 09:18:36;;;;;;;;;;;25.80;42.80;;;;;;5008837;28;20556;-65
2022/07/07 09:21:03;;;;;;;;;;;25.90;42.80;;;;;;5014514;28;20014;-64
2022/07/07 09:23:28;;;;;;;;;;;25.90;42.80;;;;;;5012687;28;19913;-64
2022/07/07 09:25:55;;;;;;;;;;;25.90;42.70;;;;;;5015440;28;20614;-66
2022/07/07 09:28:20;;;;;;;;;;;25.90;42.60;;;;;;5016323;28;19914;-66
2022/07/07 09:30:46;;;;;;;;;;;25.90;42.60;;;;;;5017498;28;19923;-65
2022/07/07 09:33:13;;;;;;;;;;;26.00;42.70;;;;;;5015434;28;20242;-65
2022/07/07 09:38:25;;;;;;;;;;;26.00;42.70;;;;;;5012768;28;20376;-64
2022/07/07 09:41:03;;;;;;;;;;;26.00;42.80;;;;;;5017072;28;19921;-65
2022/07/07 09:43:30;;;;;;;;;;;26.10;42.90;;;;;;5014648;28;19989;-66
2022/07/07 09:46:07;;;;;;;;;;;26.10;42.70;;;;;;5014467;28;20600;-66
2022/07/07 09:48:34;;;;;;;;;;;26.10;42.70;;;;;;5010295;28;19917;-65
2022/07/07 09:51:19;;;;;;;;;;;26.10;42.60;;;;;;5014104;28;20056;-63
2022/07/07 09:53:55;;;;;;;;;;;26.10;42.50;;;;;;5013913;28;20387;-62
2022/07/07 09:56:21;;;;;;;;;;;26.10;42.90;;;;;;5014713;28;20268;-66
2022/07/07 09:58:47;;;;;;;;;;;26.20;42.70;;;;;;5016109;28;19921;-66
2022/07/07 10:01:12;;;;;;;;;;;26.20;42.60;;;;;;5013540;28;19913;-65
2022/07/07 10:03:39;;;;;;;;;;;26.20;42.60;;;;;;5013793;28;20012;-61
2022/07/07 10:06:05;;;;;;;;;;;26.20;42.60;;;;;;5015341;28;19929;-66
2022/07/07 10:08:31;;;;;;;;;;;26.30;42.60;;;;;;5010426;28;19917;-63
2022/07/07 10:10:57;;;;;;;;;;;26.30;42.60;;;;;;5008515;28;20123;-63
2022/07/07 10:13:23;;;;;;;;;;;26.30;42.60;;;;;;5013977;28;21485;-63
2022/07/07 10:15:48;;;;;;;;;;;26.30;42.60;;;;;;5010783;28;19929;-63
2022/07/07 10:18:14;;;;;;;;;;;26.30;42.60;;;;;;5015467;28;19912;-65
2022/07/07 10:20:40;;;;;;;;;;;26.30;42.60;;;;;;5013954;28;19936;-64
2022/07/07 10:23:05;;;;;;;;;;;26.30;42.60;;;;;;5010703;28;20375;-64
2022/07/07 10:25:31;;;;;;;;;;;26.30;42.50;;;;;;5013795;28;19921;-63
2022/07/07 10:27:57;;;;;;;;;;;26.30;42.50;;;;;;5011281;28;19999;-64
2022/07/07 10:30:30;;;;;;;;;;;26.30;42.60;;;;;;5016558;28;20438;-63
2022/07/07 10:32:56;;;;;;;;;;;26.40;42.60;;;;;;5013689;28;19981;-64
2022/07/07 10:35:23;;;;;;;;;;;26.40;42.50;;;;;;5012105;28;20476;-65
2022/07/07 10:37:53;;;;;;;;;;;26.40;42.60;;;;;;5010574;28;19917;-63
2022/07/07 10:40:18;;;;;;;;;;;26.40;42.60;;;;;;5015121;28;19917;-60
2022/07/07 10:42:52;;;;;;;;;;;26.40;42.40;;;;;;5015968;28;19920;-62
2022/07/07 10:45:18;;;;;;;;;;;26.50;42.50;;;;;;5015786;28;20517;-63
2022/07/07 10:47:44;;;;;;;;;;;26.40;42.40;;;;;;5011345;28;19909;-63
2022/07/07 10:50:24;;;;;;;;;;;26.50;42.50;;;;;;5013886;28;19920;-64
2022/07/07 10:52:49;;;;;;;;;;;26.50;42.50;;;;;;5012296;28;20427;-63
2022/07/07 10:55:15;;;;;;;;;;;26.50;42.50;;;;;;5013411;28;20054;-60
2022/07/07 10:57:40;;;;;;;;;;;26.50;42.50;;;;;;5013838;28;19909;-60
2022/07/07 11:00:09;;;;;;;;;;;26.50;42.50;;;;;;5014020;28;19913;-63
2022/07/07 11:02:48;;;;;;;;;;;26.50;42.50;;;;;;5012135;28;20369;-63
2022/07/07 11:05:13;;;;;;;;;;;26.60;42.50;;;;;;5014372;28;19913;-62
2022/07/07 11:08:03;;;;;;;;;;;26.60;42.40;;;;;;5012471;28;19920;-63
2022/07/07 11:10:37;;;;;;;;;;;26.60;42.40;;;;;;5007024;28;19951;-63
2022/07/07 11:13:14;;;;;;;;;;;26.60;42.40;;;;;;5014670;28;19913;-63
2022/07/07 11:15:39;;;;;;;;;;;26.60;42.40;;;;;;5014805;28;19966;-64
2022/07/07 11:18:05;;;;;;;;;;;26.60;42.40;;;;;;5013944;28;19909;-63
2022/07/07 11:20:30;;;;;;;;;;;26.60;42.40;;;;;;5014849;28;20016;-60
2022/07/07 11:23:09;;;;;;;;;;;26.60;42.50;;;;;;5012512;28;19909;-64
2022/07/07 11:25:35;;;;;;;;;;;26.60;42.50;;;;;;5010906;28;20027;-65
2022/07/07 11:28:00;;;;;;;;;;;26.70;42.50;;;;;;5010613;28;20054;-64
2022/07/07 11:30:26;;;;;;;;;;;26.70;42.50;;;;;;5012549;28;19913;-63
2022/07/07 11:32:56;;;;;;;;;;;26.70;42.60;;;;;;5010582;28;19953;-62
2022/07/07 11:35:21;;;;;;;;;;;26.70;42.50;;;;;;5010506;28;20408;-60
2022/07/07 11:37:47;;;;;;;;;;;26.70;42.60;;;;;;5001380;28;19932;-64
2022/07/07 11:40:19;;;;;;;;;;;26.70;42.60;;;;;;5012411;28;19917;-64
2022/07/07 11:42:44;;;;;;;;;;;26.70;42.50;;;;;;5009409;28;19913;-64
2022/07/07 11:45:20;;;;;;;;;;;26.70;42.50;;;;;;5010664;28;19923;-65
2022/07/07 11:47:46;;;;;;;;;;;26.80;42.60;;;;;;5009544;28;19964;-59
2022/07/07 11:50:12;;;;;;;;;;;26.80;42.60;;;;;;5010827;28;20019;-61
2022/07/07 11:52:37;;;;;;;;;;;26.80;42.60;;;;;;5010317;28;19917;-64
2022/07/07 11:55:04;;;;;;;;;;;26.80;42.50;;;;;;5008502;28;19974;-64
2022/07/07 11:57:30;;;;;;;;;;;26.80;42.50;;;;;;5009724;28;19917;-64
2022/07/07 12:00:14;;;;;;;;;;;26.80;42.50;;;;;;5011230;28;19924;-64
2022/07/07 12:02:40;;;;;;;;;;;26.80;42.50;;;;;;4987640;28;20016;-63
2022/07/07 12:05:06;;;;;;;;;;;26.80;42.50;;;;;;4991849;28;20009;-64
2022/07/07 12:07:31;;;;;;;;;;;26.90;42.60;;;;;;4985341;28;21248;-64
2022/07/07 12:09:57;;;;;;;;;;;26.90;42.60;;;;;;4990915;28;19917;-64
2022/07/07 12:12:22;;;;;;;;;;;26.90;42.60;;;;;;4989591;28;19913;-63
2022/07/07 12:14:48;;;;;;;;;;;26.90;42.50;;;;;;4987689;28;20365;-63
2022/07/07 12:17:32;;;;;;;;;;;26.90;42.50;;;;;;4988063;28;20047;-64
2022/07/07 12:19:57;;;;;;;;;;;27.00;42.60;;;;;;4986926;28;19928;-63
2022/07/07 12:22:34;;;;;;;;;;;26.90;42.50;;;;;;4989727;28;19913;-63
2022/07/07 12:25:03;;;;;;;;;;;27.00;42.50;;;;;;4988653;28;19913;-61
2022/07/07 12:27:29;;;;;;;;;;;27.00;42.50;;;;;;4990461;28;20280;-65
2022/07/07 12:30:03;;;;;;;;;;;27.00;42.50;;;;;;4989580;28;19910;-65
2022/07/07 12:32:28;;;;;;;;;;;27.00;42.50;;;;;;4989712;28;20670;-66
2022/07/07 12:34:54;;;;;;;;;;;27.00;42.50;;;;;;4991014;28;20012;-65
2022/07/07 12:37:20;;;;;;;;;;;27.00;42.40;;;;;;4988406;28;19916;-65
2022/07/07 12:39:52;;;;;;;;;;;27.10;42.50;;;;;;4987522;28;19971;-65
2022/07/07 12:42:24;;;;;;;;;;;27.10;42.50;;;;;;4993434;28;19940;-63
2022/07/07 12:44:49;;;;;;;;;;;27.10;42.50;;;;;;4989582;28;19917;-63
2022/07/07 12:47:16;;;;;;;;;;;27.10;42.50;;;;;;4991304;28;19944;-64
2022/07/07 12:49:51;;;;;;;;;;;27.10;42.50;;;;;;4989306;28;20447;-63
2022/07/07 12:52:17;;;;;;;;;;;27.20;42.50;;;;;;4987493;28;20231;-63
2022/07/07 12:54:42;;;;;;;;;;;27.20;42.50;;;;;;4987417;28;19943;-61
2022/07/07 12:57:08;;;;;;;;;;;27.20;42.50;;;;;;4992007;28;20450;-63
2022/07/07 12:59:37;;;;;;;;;;;27.20;42.40;;;;;;4987817;28;19921;-64
2022/07/07 13:02:03;;;;;;;;;;;27.20;42.40;;;;;;4987461;28;19917;-61
2022/07/07 13:04:28;;;;;;;;;;;27.20;42.50;;;;;;4986195;28;19920;-64
2022/07/07 13:06:54;;;;;;;;;;;27.20;42.50;;;;;;4987222;28;20722;-65
2022/07/07 13:09:20;;;;;;;;;;;27.20;42.40;;;;;;4988137;28;20000;-65
2022/07/07 13:11:49;;;;;;;;;;;27.20;42.40;;;;;;4991826;28;19918;-64
2022/07/07 13:14:15;;;;;;;;;;;27.20;42.40;;;;;;4992330;28;19913;-64
2022/07/07 13:16:40;;;;;;;;;;;27.20;42.40;;;;;;4992437;28;19922;-65
2022/07/07 13:19:06;;;;;;;;;;;27.20;42.40;;;;;;4990891;28;20373;-66
2022/07/07 13:21:32;;;;;;;;;;;27.20;42.40;;;;;;4995134;28;19928;-62
2022/07/07 13:23:57;;;;;;;;;;;27.20;42.50;;;;;;4990413;28;20095;-64
2022/07/07 13:26:22;;;;;;;;;;;27.20;42.70;;;;;;4996254;28;19925;-64
2022/07/07 13:28:49;;;;;;;;;;;27.20;42.80;;;;;;4988885;28;19916;-64
2022/07/07 13:31:14;;;;;;;;;;;27.20;42.80;;;;;;4996593;28;19984;-63
2022/07/07 13:33:40;;;;;;;;;;;27.20;42.80;;;;;;4994115;28;19972;-65
2022/07/07 13:36:06;;;;;;;;;;;27.20;42.90;;;;;;4993316;28;19914;-64
2022/07/07 13:38:32;;;;;;;;;;;27.30;43.10;;;;;;4987252;28;19909;-64
2022/07/07 13:40:58;;;;;;;;;;;27.30;43.20;;;;;;4990476;28;19913;-64
2022/07/07 13:43:23;;;;;;;;;;;27.30;43.20;;;;;;4991589;28;19936;-63
2022/07/07 13:45:50;;;;;;;;;;;27.30;43.20;;;;;;4994588;28;19921;-64
2022/07/07 13:48:16;;;;;;;;;;;27.30;43.30;;;;;;4991647;28;19913;-61
2022/07/07 13:50:42;;;;;;;;;;;27.30;43.30;;;;;;4993139;28;19909;-65
2022/07/07 13:53:07;;;;;;;;;;;27.30;43.40;;;;;;4985820;28;20436;-64
2022/07/07 13:55:33;;;;;;;;;;;27.30;43.60;;;;;;4994292;28;20011;-63
2022/07/07 13:57:59;;;;;;;;;;;27.30;43.80;;;;;;4990923;28;19921;-62
2022/07/07 14:00:24;;;;;;;;;;;27.40;44.00;;;;;;4990848;28;19948;-64
2022/07/07 14:02:50;;;;;;;;;;;27.40;44.10;;;;;;4992892;28;20408;-62
2022/07/07 14:05:16;;;;;;;;;;;27.40;44.00;;;;;;4992477;28;19909;-63
2022/07/07 14:07:42;;;;;;;;;;;27.40;43.90;;;;;;4990807;28;19913;-63
2022/07/07 14:10:08;;;;;;;;;;;27.40;43.70;;;;;;4991511;28;19921;-64
2022/07/07 14:12:34;;;;;;;;;;;27.40;43.70;;;;;;4994033;28;19917;-61
2022/07/07 14:14:59;;;;;;;;;;;27.40;43.80;;;;;;4995539;28;20666;-63
2022/07/07 14:17:27;;;;;;;;;;;27.50;43.90;;;;;;4996283;28;19963;-61